createdAt,value
2023-04-23T00:03:15.330Z,52.75
2023-04-23T00:08:18.952Z,54.01
2023-04-23T00:13:20.704Z,51.10
2023-04-23T00:18:22.565Z,50.73
2023-04-23T00:23:24.291Z,53.26
2023-04-23T00:28:25.962Z,54.07
2023-04-23T00:33:27.624Z,57.26
2023-04-23T00:38:29.271Z,55.73
2023-04-23T00:43:31.738Z,56.12
2023-04-23T00:48:34.841Z,58.02
2023-04-23T00:53:36.486Z,57.45
2023-04-23T00:58:38.855Z,56.80
2023-04-23T01:03:42.501Z,55.95
2023-04-23T01:08:45.559Z,54.14
2023-04-23T01:13:47.241Z,55.41
2023-04-23T01:18:48.901Z,55.79
2023-04-23T01:23:50.720Z,56.47
2023-04-23T01:28:53.257Z,54.10
2023-04-23T01:33:55.693Z,54.32
2023-04-23T01:38:57.471Z,53.60
2023-04-23T01:44:00.491Z,55.77
2023-04-23T01:49:02.442Z,59.41
2023-04-23T01:54:04.149Z,58.27
2023-04-23T01:59:07.305Z,59.76
2023-04-23T02:04:09.805Z,56.95
2023-04-23T02:09:11.823Z,53.91
2023-04-23T02:14:14.098Z,53.99
2023-04-23T02:19:17.054Z,56.92
2023-04-23T02:24:18.806Z,54.22
2023-04-23T02:29:21.105Z,54.79
2023-04-23T02:34:22.813Z,58.52
2023-04-23T02:39:24.538Z,55.67
2023-04-23T02:44:26.338Z,54.60
2023-04-23T02:49:27.985Z,55.22
2023-04-23T02:54:29.675Z,56.70
2023-04-23T02:59:31.417Z,52.80
2023-04-23T03:04:33.398Z,53.08
2023-04-23T03:09:35.602Z,55.61
2023-04-23T03:14:37.284Z,55.61
2023-04-23T03:19:39.017Z,58.82
2023-04-23T03:24:41.043Z,58.00
2023-04-23T03:29:42.942Z,56.92
2023-04-23T03:34:44.684Z,56.08
2023-04-23T03:39:46.373Z,55.10
2023-04-23T03:44:47.960Z,55.79
2023-04-23T03:49:49.692Z,53.11
2023-04-23T03:54:51.387Z,52.38
2023-04-23T03:59:53.070Z,53.67
2023-04-23T04:04:55.401Z,52.48
2023-04-23T04:09:57.316Z,51.37
2023-04-23T04:14:59.285Z,53.10
2023-04-23T04:20:00.977Z,55.42
2023-04-23T04:25:02.779Z,54.28
2023-04-23T04:30:05.720Z,55.94
2023-04-23T04:35:09.117Z,55.26
2023-04-23T04:40:11.698Z,55.12
2023-04-23T04:45:13.316Z,54.03
2023-04-23T04:50:15.246Z,56.34
2023-04-23T04:55:16.946Z,55.36
2023-04-23T05:00:29.373Z,56.86
2023-04-23T05:05:33.250Z,58.36
2023-04-23T05:10:34.933Z,56.84
2023-04-23T05:15:36.820Z,56.40
2023-04-23T05:20:38.833Z,58.56
2023-04-23T05:25:41.210Z,58.17
2023-04-23T05:30:43.199Z,58.10
2023-04-23T05:35:44.954Z,55.00
2023-04-23T05:40:46.693Z,57.53
2023-04-23T05:45:48.377Z,56.94
2023-04-23T05:50:50.047Z,55.84
2023-04-23T05:55:51.688Z,56.16
2023-04-23T06:00:53.941Z,55.61
2023-04-23T06:05:55.730Z,55.10
2023-04-23T06:10:57.499Z,55.51
2023-04-23T06:15:59.619Z,56.83
2023-04-23T06:21:04.382Z,54.45
2023-04-23T06:26:06.378Z,54.55
2023-04-23T06:31:08.898Z,55.06
2023-04-23T06:36:11.110Z,53.92
2023-04-23T06:41:13.273Z,54.07
2023-04-23T06:46:15.531Z,53.06
2023-04-23T06:51:17.381Z,52.40
2023-04-23T06:56:19.135Z,53.85
2023-04-23T07:01:21.035Z,49.76
2023-04-23T07:06:22.785Z,53.60
2023-04-23T07:11:24.408Z,53.62
2023-04-23T07:16:29.653Z,52.44
2023-04-23T07:21:33.184Z,53.56
2023-04-23T07:26:35.641Z,52.14
2023-04-23T07:31:39.368Z,51.33
2023-04-23T07:36:41.069Z,50.78
2023-04-23T07:41:42.751Z,52.08
2023-04-23T07:46:45.104Z,51.64
2023-04-23T07:51:48.503Z,50.60
2023-04-23T07:56:50.206Z,49.14
2023-04-23T08:01:52.024Z,49.60
2023-04-23T08:06:53.629Z,49.02
2023-04-23T08:11:55.480Z,48.75
2023-04-23T08:16:57.163Z,48.26
2023-04-23T08:21:58.860Z,50.24
2023-04-23T08:27:00.509Z,46.37
2023-04-23T08:32:02.279Z,46.54
2023-04-23T08:37:04.973Z,44.97
2023-04-23T08:42:31.924Z,45.07
2023-04-23T08:47:34.275Z,45.88
2023-04-23T08:52:40.865Z,45.63
2023-04-23T08:57:43.017Z,44.99
2023-04-23T09:02:47.225Z,45.19
2023-04-23T09:07:49.114Z,44.88
2023-04-23T09:12:50.947Z,43.66
2023-04-23T09:17:52.677Z,44.43
2023-04-23T09:22:54.340Z,45.10
2023-04-23T09:27:59.124Z,43.14
2023-04-23T09:33:01.145Z,43.34
2023-04-23T09:38:07.754Z,44.26
2023-04-23T09:43:11.478Z,43.41
2023-04-23T09:48:13.148Z,43.27
2023-04-23T09:53:15.139Z,41.50
2023-04-23T09:58:16.821Z,44.02
2023-04-23T10:03:27.473Z,41.70
2023-04-23T10:08:31.913Z,41.82
2023-04-23T10:13:36.498Z,44.06
2023-04-23T10:18:39.132Z,43.52
2023-04-23T10:23:44.444Z,44.60
2023-04-23T10:28:49.170Z,40.65
2023-04-23T10:33:58.318Z,42.62
2023-04-23T10:39:04.286Z,40.73
2023-04-23T10:44:07.266Z,40.83
2023-04-23T10:49:16.634Z,39.73
2023-04-23T10:54:20.159Z,40.83
2023-04-23T10:59:23.062Z,40.83
2023-04-23T11:06:47.450Z,45.81
2023-04-23T11:11:49.015Z,45.07
2023-04-23T11:16:50.700Z,44.21
2023-04-23T11:22:06.226Z,43.20
2023-04-23T11:27:10.695Z,43.56
2023-04-23T11:32:14.309Z,43.30
2023-04-23T11:37:17.944Z,42.77
2023-04-23T11:42:22.433Z,42.70
2023-04-23T11:47:26.369Z,43.94
2023-04-23T11:52:28.036Z,42.49
2023-04-23T11:57:29.587Z,41.76
2023-04-23T12:02:31.310Z,42.36
2023-04-23T12:07:33.325Z,43.02
2023-04-23T12:12:35.499Z,42.28
2023-04-23T12:17:37.169Z,42.12
2023-04-23T12:22:38.882Z,42.24
2023-04-23T12:27:42.722Z,40.58
2023-04-23T12:32:44.469Z,41.03
2023-04-23T12:37:46.179Z,40.81
2023-04-23T12:42:47.734Z,39.52
2023-04-23T12:47:49.343Z,40.14
2023-04-23T12:52:51.138Z,39.90
2023-04-23T12:57:52.713Z,39.18
2023-04-23T13:02:56.036Z,38.33
2023-04-23T13:07:57.993Z,39.17
2023-04-23T13:12:59.520Z,40.05
2023-04-23T13:18:01.207Z,39.07
2023-04-23T13:23:03.177Z,39.57
2023-04-23T13:28:04.878Z,39.30
2023-04-23T13:33:06.526Z,38.69
2023-04-23T13:38:08.251Z,39.20
2023-04-23T13:43:10.246Z,40.28
2023-04-23T13:48:12.015Z,38.48
2023-04-23T13:53:13.632Z,39.42
2023-04-23T13:58:15.196Z,39.56
2023-04-23T14:03:17.215Z,40.70
2023-04-23T14:08:18.838Z,39.67
2023-04-23T14:13:20.626Z,39.75
2023-04-23T14:18:22.914Z,40.58
2023-04-23T14:23:25.348Z,39.74
2023-04-23T14:28:34.528Z,39.03
2023-04-23T14:33:36.116Z,39.55
2023-04-23T14:38:37.742Z,39.43
2023-04-23T14:43:39.905Z,39.68
2023-04-23T14:48:41.476Z,40.01
2023-04-23T14:53:43.154Z,40.33
2023-04-23T14:58:44.997Z,39.11
2023-04-23T15:03:46.914Z,40.55
2023-04-23T15:08:48.634Z,40.22
2023-04-23T15:13:57.807Z,43.99
2023-04-23T15:19:05.309Z,48.23
2023-04-23T15:24:07.944Z,51.97
2023-04-23T15:29:10.343Z,55.42
2023-04-23T15:34:12.237Z,53.93
2023-04-23T15:39:14.089Z,52.88
2023-04-23T15:44:15.798Z,49.77
2023-04-23T15:49:17.511Z,47.98
2023-04-23T15:54:19.102Z,48.35
2023-04-23T15:59:21.127Z,48.58
2023-04-23T16:04:22.855Z,51.40
2023-04-23T16:09:24.528Z,52.26
2023-04-23T16:14:26.133Z,50.75
2023-04-23T16:19:28.462Z,52.83
2023-04-23T16:24:30.105Z,51.40
2023-04-23T16:29:31.850Z,52.26
2023-04-23T16:34:34.093Z,48.96
2023-04-23T16:39:35.807Z,46.64
2023-04-23T16:44:37.478Z,51.50
2023-04-23T16:49:39.247Z,52.51
2023-04-23T16:54:41.002Z,53.49
2023-04-23T16:59:42.806Z,48.28
2023-04-23T17:04:44.906Z,49.39
2023-04-23T17:09:47.223Z,50.44
2023-04-23T17:14:49.044Z,53.19
2023-04-23T17:19:51.102Z,54.17
2023-04-23T17:24:52.670Z,53.33
2023-04-23T17:29:54.280Z,52.62
2023-04-23T17:35:06.396Z,50.98
2023-04-23T17:40:11.819Z,52.13
2023-04-23T17:45:13.393Z,50.03
2023-04-23T17:50:14.983Z,50.13
2023-04-23T17:55:16.865Z,52.10
2023-04-23T18:00:19.679Z,50.53
2023-04-23T18:05:21.236Z,49.96
2023-04-23T18:10:23.124Z,51.23
2023-04-23T18:15:25.736Z,50.79
2023-04-23T18:20:28.041Z,50.59
2023-04-23T18:25:30.306Z,50.69
2023-04-23T18:30:31.914Z,51.55
2023-04-23T18:35:33.447Z,53.80
2023-04-23T18:40:35.105Z,53.56
2023-04-23T18:45:36.648Z,51.63
2023-04-23T18:50:49.960Z,53.41
2023-04-23T18:55:51.489Z,54.35
2023-04-23T19:00:53.064Z,55.20
2023-04-23T19:05:55.001Z,57.06
2023-04-23T19:10:56.808Z,57.81
2023-04-23T19:15:58.458Z,55.90
2023-04-23T19:21:00.155Z,59.41
2023-04-23T19:26:03.276Z,59.51
2023-04-23T19:31:04.877Z,55.86
2023-04-23T19:36:06.604Z,56.96
2023-04-23T19:41:08.248Z,55.66
2023-04-23T19:46:09.915Z,56.45
2023-04-23T19:51:11.513Z,55.62
2023-04-23T19:56:15.152Z,55.24
2023-04-23T20:01:17.880Z,55.53
2023-04-23T20:06:19.699Z,58.27
2023-04-23T20:11:21.405Z,58.60
2023-04-23T20:16:23.680Z,55.87
2023-04-23T20:21:26.205Z,56.57
2023-04-23T20:26:27.752Z,57.35
2023-04-23T20:31:29.512Z,56.19
2023-04-23T20:41:36.622Z,56.69
2023-04-23T20:46:38.705Z,57.33
2023-04-23T20:51:40.651Z,55.87
2023-04-23T20:56:42.504Z,56.39
2023-04-23T21:01:44.116Z,55.65
2023-04-23T21:06:47.188Z,54.80
2023-04-23T21:11:48.800Z,56.71
2023-04-23T21:16:50.368Z,55.49
2023-04-23T21:21:51.963Z,54.06
2023-04-23T21:26:53.538Z,57.33
2023-04-23T21:31:55.168Z,56.96
2023-04-23T21:36:57.028Z,57.78
2023-04-23T21:41:58.981Z,56.63
2023-04-23T21:47:00.611Z,54.53
2023-04-23T21:52:02.370Z,54.65
2023-04-23T21:57:03.958Z,56.53
2023-04-23T22:02:05.557Z,56.33
2023-04-23T22:07:07.380Z,55.20
2023-04-23T22:12:09.467Z,56.54
2023-04-23T22:17:11.772Z,54.25
2023-04-23T22:22:13.337Z,52.65
2023-04-23T22:27:14.938Z,51.80
2023-04-23T22:32:16.596Z,51.81
2023-04-23T22:37:19.231Z,51.90
2023-04-23T22:42:20.768Z,52.40
2023-04-23T22:47:22.473Z,53.94
2023-04-23T22:52:24.089Z,52.55
2023-04-23T22:57:25.902Z,54.39
2023-04-23T23:02:27.624Z,55.54
2023-04-23T23:07:29.185Z,56.09
2023-04-23T23:12:30.881Z,56.35
2023-04-23T23:17:32.531Z,56.85
2023-04-23T23:22:34.983Z,56.66
2023-04-23T23:27:36.594Z,55.88
2023-04-23T23:32:38.302Z,56.53
2023-04-23T23:37:39.850Z,56.52
2023-04-23T23:42:41.464Z,57.05
2023-04-23T23:47:43.095Z,57.91
2023-04-23T23:52:44.714Z,58.27
2023-04-23T23:57:46.499Z,55.44
